sensor_id;sensor_type;location;lat;lon;timestamp;temperature;humidity
10722;DHT22;5412;59.450;18.124;2023-08-12T00:01:41;14.50;99.90
10722;DHT22;5412;59.450;18.124;2023-08-12T00:04:07;14.50;99.90
10722;DHT22;5412;59.450;18.124;2023-08-12T00:06:33;14.50;99.90
10722;DHT22;5412;59.450;18.124;2023-08-12T00:08:59;14.50;99.90
10722;DHT22;5412;59.450;18.124;2023-08-12T00:11:24;14.50;99.90
10722;DHT22;5412;59.450;18.124;2023-08-12T00:13:50;14.50;99.90
10722;DHT22;5412;59.450;18.124;2023-08-12T00:16:16;14.50;99.90
10722;DHT22;5412;59.450;18.124;2023-08-12T00:18:41;14.50;99.90
10722;DHT22;5412;59.450;18.124;2023-08-12T00:21:08;14.50;99.90
10722;DHT22;5412;59.450;18.124;2023-08-12T00:23:39;14.40;99.90
10722;DHT22;5412;59.450;18.124;2023-08-12T00:26:06;14.40;99.90
10722;DHT22;5412;59.450;18.124;2023-08-12T00:28:32;14.40;99.90
10722;DHT22;5412;59.450;18.124;2023-08-12T00:30:58;14.40;99.90
10722;DHT22;5412;59.450;18.124;2023-08-12T00:33:24;14.40;99.90
10722;DHT22;5412;59.450;18.124;2023-08-12T00:35:50;14.40;99.90
10722;DHT22;5412;59.450;18.124;2023-08-12T00:38:15;14.40;99.90
10722;DHT22;5412;59.450;18.124;2023-08-12T00:40:41;14.30;99.90
10722;DHT22;5412;59.450;18.124;2023-08-12T00:43:07;14.30;99.90
10722;DHT22;5412;59.450;18.124;2023-08-12T00:45:34;14.30;99.90
10722;DHT22;5412;59.450;18.124;2023-08-12T00:48:01;14.30;99.90
10722;DHT22;5412;59.450;18.124;2023-08-12T00:50:28;14.20;99.90
10722;DHT22;5412;59.450;18.124;2023-08-12T00:52:54;14.40;99.90
10722;DHT22;5412;59.450;18.124;2023-08-12T00:55:20;14.40;99.90
10722;DHT22;5412;59.450;18.124;2023-08-12T00:57:46;14.40;99.90
10722;DHT22;5412;59.450;18.124;2023-08-12T01:00:13;14.40;99.90
10722;DHT22;5412;59.450;18.124;2023-08-12T01:02:40;14.40;99.90
10722;DHT22;5412;59.450;18.124;2023-08-12T01:05:09;14.40;99.90
10722;DHT22;5412;59.450;18.124;2023-08-12T01:07:35;14.50;99.90
10722;DHT22;5412;59.450;18.124;2023-08-12T01:10:01;14.50;99.90
10722;DHT22;5412;59.450;18.124;2023-08-12T01:12:34;14.50;99.90
10722;DHT22;5412;59.450;18.124;2023-08-12T01:17:34;14.50;99.90
10722;DHT22;5412;59.450;18.124;2023-08-12T01:20:02;14.50;99.90
10722;DHT22;5412;59.450;18.124;2023-08-12T01:22:35;14.60;99.90
10722;DHT22;5412;59.450;18.124;2023-08-12T01:25:05;14.60;99.90
10722;DHT22;5412;59.450;18.124;2023-08-12T01:27:31;14.60;99.90
10722;DHT22;5412;59.450;18.124;2023-08-12T01:29:57;14.60;99.90
10722;DHT22;5412;59.450;18.124;2023-08-12T01:35:19;14.60;99.90
10722;DHT22;5412;59.450;18.124;2023-08-12T01:37:48;14.60;99.90
10722;DHT22;5412;59.450;18.124;2023-08-12T01:40:16;14.60;99.90
10722;DHT22;5412;59.450;18.124;2023-08-12T01:42:42;14.60;99.90
10722;DHT22;5412;59.450;18.124;2023-08-12T01:45:08;14.60;99.90
10722;DHT22;5412;59.450;18.124;2023-08-12T01:47:34;14.60;99.90
10722;DHT22;5412;59.450;18.124;2023-08-12T01:50:00;14.60;99.90
10722;DHT22;5412;59.450;18.124;2023-08-12T01:52:25;14.60;99.90
10722;DHT22;5412;59.450;18.124;2023-08-12T01:54:51;14.60;99.90
10722;DHT22;5412;59.450;18.124;2023-08-12T01:57:17;14.60;99.90
10722;DHT22;5412;59.450;18.124;2023-08-12T01:59:43;14.60;99.90
10722;DHT22;5412;59.450;18.124;2023-08-12T02:02:12;14.60;99.90
10722;DHT22;5412;59.450;18.124;2023-08-12T02:04:40;14.60;99.90
10722;DHT22;5412;59.450;18.124;2023-08-12T02:07:08;14.60;99.90
10722;DHT22;5412;59.450;18.124;2023-08-12T02:09:34;14.60;99.90
10722;DHT22;5412;59.450;18.124;2023-08-12T02:12:00;14.60;99.90
10722;DHT22;5412;59.450;18.124;2023-08-12T02:14:25;14.50;99.90
10722;DHT22;5412;59.450;18.124;2023-08-12T02:16:51;14.50;99.90
10722;DHT22;5412;59.450;18.124;2023-08-12T02:19:17;14.50;99.90
10722;DHT22;5412;59.450;18.124;2023-08-12T02:21:42;14.50;99.90
10722;DHT22;5412;59.450;18.124;2023-08-12T02:24:08;14.60;99.90
10722;DHT22;5412;59.450;18.124;2023-08-12T02:26:34;14.50;99.90
10722;DHT22;5412;59.450;18.124;2023-08-12T02:29:00;14.60;99.90
10722;DHT22;5412;59.450;18.124;2023-08-12T02:31:26;14.50;99.90
10722;DHT22;5412;59.450;18.124;2023-08-12T02:33:52;14.50;99.90
10722;DHT22;5412;59.450;18.124;2023-08-12T02:36:18;14.50;99.90
10722;DHT22;5412;59.450;18.124;2023-08-12T02:38:43;14.50;99.90
10722;DHT22;5412;59.450;18.124;2023-08-12T02:41:09;14.50;99.90
10722;DHT22;5412;59.450;18.124;2023-08-12T02:43:35;14.50;99.90
10722;DHT22;5412;59.450;18.124;2023-08-12T02:46:00;14.50;99.90
10722;DHT22;5412;59.450;18.124;2023-08-12T02:48:26;14.40;99.90
10722;DHT22;5412;59.450;18.124;2023-08-12T02:50:52;14.50;99.90
10722;DHT22;5412;59.450;18.124;2023-08-12T02:53:17;14.50;99.90
10722;DHT22;5412;59.450;18.124;2023-08-12T02:55:45;14.50;99.90
10722;DHT22;5412;59.450;18.124;2023-08-12T02:58:11;14.50;99.90
10722;DHT22;5412;59.450;18.124;2023-08-12T03:00:37;14.50;99.90
10722;DHT22;5412;59.450;18.124;2023-08-12T03:03:02;14.50;99.90
10722;DHT22;5412;59.450;18.124;2023-08-12T03:05:31;14.40;99.90
10722;DHT22;5412;59.450;18.124;2023-08-12T03:07:57;14.50;99.90
10722;DHT22;5412;59.450;18.124;2023-08-12T03:10:26;14.50;99.90
10722;DHT22;5412;59.450;18.124;2023-08-12T03:12:52;14.40;99.90
10722;DHT22;5412;59.450;18.124;2023-08-12T03:15:19;14.50;99.90
10722;DHT22;5412;59.450;18.124;2023-08-12T03:17:44;14.40;99.90
10722;DHT22;5412;59.450;18.124;2023-08-12T03:20:10;14.50;99.90
10722;DHT22;5412;59.450;18.124;2023-08-12T03:22:36;14.50;99.90
10722;DHT22;5412;59.450;18.124;2023-08-12T03:25:03;14.50;99.90
10722;DHT22;5412;59.450;18.124;2023-08-12T03:27:29;14.40;99.90
10722;DHT22;5412;59.450;18.124;2023-08-12T03:29:54;14.50;99.90
10722;DHT22;5412;59.450;18.124;2023-08-12T03:32:20;14.60;99.90
10722;DHT22;5412;59.450;18.124;2023-08-12T03:34:46;14.60;99.90
10722;DHT22;5412;59.450;18.124;2023-08-12T03:37:12;14.60;99.90
10722;DHT22;5412;59.450;18.124;2023-08-12T03:39:37;14.60;99.90
10722;DHT22;5412;59.450;18.124;2023-08-12T03:42:03;14.60;99.90
10722;DHT22;5412;59.450;18.124;2023-08-12T03:44:29;14.60;99.90
10722;DHT22;5412;59.450;18.124;2023-08-12T03:46:54;14.60;99.90
10722;DHT22;5412;59.450;18.124;2023-08-12T03:49:20;14.60;99.90
10722;DHT22;5412;59.450;18.124;2023-08-12T03:51:46;14.60;99.90
10722;DHT22;5412;59.450;18.124;2023-08-12T03:54:12;14.70;99.90
10722;DHT22;5412;59.450;18.124;2023-08-12T03:56:37;14.70;99.90
10722;DHT22;5412;59.450;18.124;2023-08-12T03:59:03;14.70;99.90
10722;DHT22;5412;59.450;18.124;2023-08-12T04:01:29;14.70;99.90
10722;DHT22;5412;59.450;18.124;2023-08-12T04:03:54;14.70;99.90
10722;DHT22;5412;59.450;18.124;2023-08-12T04:06:20;14.70;99.90
10722;DHT22;5412;59.450;18.124;2023-08-12T04:08:46;14.80;99.90
10722;DHT22;5412;59.450;18.124;2023-08-12T04:11:12;14.80;99.90
10722;DHT22;5412;59.450;18.124;2023-08-12T04:13:37;14.80;99.90
10722;DHT22;5412;59.450;18.124;2023-08-12T04:16:03;14.80;99.90
10722;DHT22;5412;59.450;18.124;2023-08-12T04:18:29;14.90;99.90
10722;DHT22;5412;59.450;18.124;2023-08-12T04:20:55;14.90;99.90
10722;DHT22;5412;59.450;18.124;2023-08-12T04:23:21;15.00;99.90
10722;DHT22;5412;59.450;18.124;2023-08-12T04:25:47;15.00;99.90
10722;DHT22;5412;59.450;18.124;2023-08-12T04:28:14;15.00;99.90
10722;DHT22;5412;59.450;18.124;2023-08-12T04:30:44;15.00;99.90
10722;DHT22;5412;59.450;18.124;2023-08-12T04:33:11;15.00;99.90
10722;DHT22;5412;59.450;18.124;2023-08-12T04:35:38;15.10;99.90
10722;DHT22;5412;59.450;18.124;2023-08-12T04:38:04;15.20;99.90
10722;DHT22;5412;59.450;18.124;2023-08-12T04:40:29;15.30;99.90
10722;DHT22;5412;59.450;18.124;2023-08-12T04:42:55;15.30;99.90
10722;DHT22;5412;59.450;18.124;2023-08-12T04:45:21;15.40;99.90
10722;DHT22;5412;59.450;18.124;2023-08-12T04:47:47;15.50;99.90
10722;DHT22;5412;59.450;18.124;2023-08-12T04:50:13;15.60;99.90
10722;DHT22;5412;59.450;18.124;2023-08-12T04:52:38;15.80;99.90
10722;DHT22;5412;59.450;18.124;2023-08-12T04:55:04;15.90;99.90
10722;DHT22;5412;59.450;18.124;2023-08-12T04:57:30;16.00;99.90
10722;DHT22;5412;59.450;18.124;2023-08-12T04:59:56;16.10;99.90
10722;DHT22;5412;59.450;18.124;2023-08-12T05:02:22;16.10;99.90
10722;DHT22;5412;59.450;18.124;2023-08-12T05:04:51;16.20;99.90
10722;DHT22;5412;59.450;18.124;2023-08-12T05:07:17;16.20;99.90
10722;DHT22;5412;59.450;18.124;2023-08-12T05:09:43;16.20;99.90
10722;DHT22;5412;59.450;18.124;2023-08-12T05:12:10;16.20;99.90
10722;DHT22;5412;59.450;18.124;2023-08-12T05:14:37;16.30;99.90
10722;DHT22;5412;59.450;18.124;2023-08-12T05:17:03;16.40;99.90
10722;DHT22;5412;59.450;18.124;2023-08-12T05:19:29;16.50;99.90
10722;DHT22;5412;59.450;18.124;2023-08-12T05:21:54;16.50;99.90
10722;DHT22;5412;59.450;18.124;2023-08-12T05:24:20;16.50;99.90
10722;DHT22;5412;59.450;18.124;2023-08-12T05:26:46;16.60;99.90
10722;DHT22;5412;59.450;18.124;2023-08-12T05:29:12;16.70;99.90
10722;DHT22;5412;59.450;18.124;2023-08-12T05:31:37;16.70;99.90
10722;DHT22;5412;59.450;18.124;2023-08-12T05:34:04;16.70;99.90
10722;DHT22;5412;59.450;18.124;2023-08-12T05:36:29;16.70;99.90
10722;DHT22;5412;59.450;18.124;2023-08-12T05:38:55;16.70;99.90
10722;DHT22;5412;59.450;18.124;2023-08-12T05:41:21;16.80;99.90
10722;DHT22;5412;59.450;18.124;2023-08-12T05:43:48;16.80;99.90
10722;DHT22;5412;59.450;18.124;2023-08-12T05:46:14;16.80;99.90
10722;DHT22;5412;59.450;18.124;2023-08-12T05:48:39;16.90;99.90
10722;DHT22;5412;59.450;18.124;2023-08-12T05:51:05;16.90;99.90
10722;DHT22;5412;59.450;18.124;2023-08-12T05:53:31;16.90;99.90
10722;DHT22;5412;59.450;18.124;2023-08-12T05:55:57;17.00;99.90
10722;DHT22;5412;59.450;18.124;2023-08-12T05:58:23;17.00;99.90
10722;DHT22;5412;59.450;18.124;2023-08-12T06:00:49;17.10;99.90
10722;DHT22;5412;59.450;18.124;2023-08-12T06:03:15;17.20;99.90
10722;DHT22;5412;59.450;18.124;2023-08-12T06:05:45;17.20;99.90
10722;DHT22;5412;59.450;18.124;2023-08-12T06:08:11;17.20;99.90
10722;DHT22;5412;59.450;18.124;2023-08-12T06:10:37;17.30;99.90
10722;DHT22;5412;59.450;18.124;2023-08-12T06:13:03;17.40;99.90
10722;DHT22;5412;59.450;18.124;2023-08-12T06:15:29;17.40;99.90
10722;DHT22;5412;59.450;18.124;2023-08-12T06:17:55;17.50;99.90
10722;DHT22;5412;59.450;18.124;2023-08-12T06:20:22;17.50;99.90
10722;DHT22;5412;59.450;18.124;2023-08-12T06:22:48;17.70;99.90
10722;DHT22;5412;59.450;18.124;2023-08-12T06:25:14;17.90;99.90
10722;DHT22;5412;59.450;18.124;2023-08-12T06:27:39;18.10;99.90
10722;DHT22;5412;59.450;18.124;2023-08-12T06:30:05;18.20;99.90
10722;DHT22;5412;59.450;18.124;2023-08-12T06:32:33;18.30;99.90
10722;DHT22;5412;59.450;18.124;2023-08-12T06:34:59;18.30;99.90
10722;DHT22;5412;59.450;18.124;2023-08-12T06:37:24;18.20;99.90
10722;DHT22;5412;59.450;18.124;2023-08-12T06:39:50;18.20;99.90
10722;DHT22;5412;59.450;18.124;2023-08-12T06:42:16;18.30;99.90
10722;DHT22;5412;59.450;18.124;2023-08-12T06:44:42;18.30;99.90
10722;DHT22;5412;59.450;18.124;2023-08-12T06:47:07;18.30;99.90
10722;DHT22;5412;59.450;18.124;2023-08-12T06:49:33;18.20;99.90
10722;DHT22;5412;59.450;18.124;2023-08-12T06:51:59;18.30;99.90
10722;DHT22;5412;59.450;18.124;2023-08-12T06:54:24;18.30;99.90
10722;DHT22;5412;59.450;18.124;2023-08-12T06:56:50;18.20;99.90
10722;DHT22;5412;59.450;18.124;2023-08-12T06:59:16;18.30;99.90
10722;DHT22;5412;59.450;18.124;2023-08-12T07:01:42;18.20;99.90
10722;DHT22;5412;59.450;18.124;2023-08-12T07:04:08;18.30;99.90
10722;DHT22;5412;59.450;18.124;2023-08-12T07:06:34;18.30;99.90
10722;DHT22;5412;59.450;18.124;2023-08-12T07:08:59;18.40;99.90
10722;DHT22;5412;59.450;18.124;2023-08-12T07:11:25;18.50;99.90
10722;DHT22;5412;59.450;18.124;2023-08-12T07:13:51;18.50;99.90
10722;DHT22;5412;59.450;18.124;2023-08-12T07:16:17;18.30;99.90
10722;DHT22;5412;59.450;18.124;2023-08-12T07:18:42;18.30;99.90
10722;DHT22;5412;59.450;18.124;2023-08-12T07:21:08;18.30;99.90
10722;DHT22;5412;59.450;18.124;2023-08-12T07:23:34;18.30;99.90
10722;DHT22;5412;59.450;18.124;2023-08-12T07:25:59;18.30;99.90
10722;DHT22;5412;59.450;18.124;2023-08-12T07:28:25;18.20;99.90
10722;DHT22;5412;59.450;18.124;2023-08-12T07:30:51;18.20;99.90
10722;DHT22;5412;59.450;18.124;2023-08-12T07:33:19;18.20;99.90
10722;DHT22;5412;59.450;18.124;2023-08-12T07:35:45;18.20;99.90
10722;DHT22;5412;59.450;18.124;2023-08-12T07:38:10;18.20;99.90
10722;DHT22;5412;59.450;18.124;2023-08-12T07:40:36;18.30;99.90
10722;DHT22;5412;59.450;18.124;2023-08-12T07:43:02;18.30;99.90
10722;DHT22;5412;59.450;18.124;2023-08-12T07:45:28;18.40;99.90
10722;DHT22;5412;59.450;18.124;2023-08-12T07:47:53;18.40;99.90
10722;DHT22;5412;59.450;18.124;2023-08-12T07:50:19;18.40;99.90
10722;DHT22;5412;59.450;18.124;2023-08-12T07:52:45;18.40;99.90
10722;DHT22;5412;59.450;18.124;2023-08-12T07:55:11;18.50;99.90
10722;DHT22;5412;59.450;18.124;2023-08-12T07:57:38;18.50;99.90
10722;DHT22;5412;59.450;18.124;2023-08-12T08:00:04;18.50;99.90
10722;DHT22;5412;59.450;18.124;2023-08-12T08:02:30;18.60;99.90
10722;DHT22;5412;59.450;18.124;2023-08-12T08:04:56;18.70;99.90
10722;DHT22;5412;59.450;18.124;2023-08-12T08:07:22;18.70;99.90
10722;DHT22;5412;59.450;18.124;2023-08-12T08:09:48;18.60;99.90
10722;DHT22;5412;59.450;18.124;2023-08-12T08:12:13;18.70;99.90
10722;DHT22;5412;59.450;18.124;2023-08-12T08:14:39;18.70;99.90
10722;DHT22;5412;59.450;18.124;2023-08-12T08:17:05;18.70;99.90
10722;DHT22;5412;59.450;18.124;2023-08-12T08:19:31;18.80;99.90
10722;DHT22;5412;59.450;18.124;2023-08-12T08:21:57;18.80;99.90
10722;DHT22;5412;59.450;18.124;2023-08-12T08:24:23;18.70;99.90
10722;DHT22;5412;59.450;18.124;2023-08-12T08:26:49;18.70;99.90
10722;DHT22;5412;59.450;18.124;2023-08-12T08:29:15;18.80;99.90
10722;DHT22;5412;59.450;18.124;2023-08-12T08:31:41;18.90;99.90
10722;DHT22;5412;59.450;18.124;2023-08-12T08:34:07;18.90;99.90
10722;DHT22;5412;59.450;18.124;2023-08-12T08:36:32;18.90;99.90
10722;DHT22;5412;59.450;18.124;2023-08-12T08:38:58;18.90;99.90
10722;DHT22;5412;59.450;18.124;2023-08-12T08:41:24;18.90;99.90
10722;DHT22;5412;59.450;18.124;2023-08-12T08:43:52;19.00;99.90
10722;DHT22;5412;59.450;18.124;2023-08-12T08:46:20;19.10;99.90
10722;DHT22;5412;59.450;18.124;2023-08-12T08:48:46;19.00;99.90
10722;DHT22;5412;59.450;18.124;2023-08-12T08:51:14;19.00;99.90
10722;DHT22;5412;59.450;18.124;2023-08-12T08:53:41;19.00;99.90
10722;DHT22;5412;59.450;18.124;2023-08-12T08:56:07;19.00;99.90
10722;DHT22;5412;59.450;18.124;2023-08-12T08:58:33;19.10;99.90
10722;DHT22;5412;59.450;18.124;2023-08-12T09:01:00;19.20;99.90
10722;DHT22;5412;59.450;18.124;2023-08-12T09:03:27;19.10;99.90
10722;DHT22;5412;59.450;18.124;2023-08-12T09:05:55;19.20;99.90
10722;DHT22;5412;59.450;18.124;2023-08-12T09:08:22;19.10;99.90
10722;DHT22;5412;59.450;18.124;2023-08-12T09:10:48;19.20;99.90
10722;DHT22;5412;59.450;18.124;2023-08-12T09:13:14;19.30;99.90
10722;DHT22;5412;59.450;18.124;2023-08-12T09:15:41;19.50;99.90
10722;DHT22;5412;59.450;18.124;2023-08-12T09:18:07;19.50;99.90
10722;DHT22;5412;59.450;18.124;2023-08-12T09:20:34;19.60;99.90
10722;DHT22;5412;59.450;18.124;2023-08-12T09:23:01;19.80;99.90
10722;DHT22;5412;59.450;18.124;2023-08-12T09:25:28;19.80;99.90
10722;DHT22;5412;59.450;18.124;2023-08-12T09:27:55;20.00;99.90
10722;DHT22;5412;59.450;18.124;2023-08-12T09:30:23;20.00;99.90
10722;DHT22;5412;59.450;18.124;2023-08-12T09:33:03;20.00;99.90
10722;DHT22;5412;59.450;18.124;2023-08-12T09:35:40;19.90;99.90
10722;DHT22;5412;59.450;18.124;2023-08-12T09:38:13;20.00;99.90
10722;DHT22;5412;59.450;18.124;2023-08-12T09:40:40;20.00;99.90
10722;DHT22;5412;59.450;18.124;2023-08-12T09:43:06;20.00;99.90
10722;DHT22;5412;59.450;18.124;2023-08-12T09:45:33;20.10;99.90
10722;DHT22;5412;59.450;18.124;2023-08-12T09:47:59;20.20;99.90
10722;DHT22;5412;59.450;18.124;2023-08-12T09:50:25;20.20;99.90
10722;DHT22;5412;59.450;18.124;2023-08-12T09:52:53;20.30;99.90
10722;DHT22;5412;59.450;18.124;2023-08-12T09:55:24;20.20;99.90
10722;DHT22;5412;59.450;18.124;2023-08-12T09:57:54;20.10;99.90
10722;DHT22;5412;59.450;18.124;2023-08-12T10:00:23;20.10;99.90
10722;DHT22;5412;59.450;18.124;2023-08-12T10:02:51;20.20;99.90
10722;DHT22;5412;59.450;18.124;2023-08-12T10:05:28;20.30;99.90
10722;DHT22;5412;59.450;18.124;2023-08-12T10:07:54;20.40;99.90
10722;DHT22;5412;59.450;18.124;2023-08-12T10:10:21;20.50;99.90
10722;DHT22;5412;59.450;18.124;2023-08-12T10:12:48;20.50;99.90
10722;DHT22;5412;59.450;18.124;2023-08-12T10:15:14;20.50;99.90
10722;DHT22;5412;59.450;18.124;2023-08-12T10:17:43;20.50;99.90
10722;DHT22;5412;59.450;18.124;2023-08-12T10:20:13;20.60;99.90
10722;DHT22;5412;59.450;18.124;2023-08-12T10:22:40;20.60;99.90
10722;DHT22;5412;59.450;18.124;2023-08-12T10:25:08;20.50;99.90
10722;DHT22;5412;59.450;18.124;2023-08-12T10:27:34;20.50;99.90
10722;DHT22;5412;59.450;18.124;2023-08-12T10:30:06;20.50;99.90
10722;DHT22;5412;59.450;18.124;2023-08-12T10:32:33;20.60;99.90
10722;DHT22;5412;59.450;18.124;2023-08-12T10:35:00;20.50;99.90
10722;DHT22;5412;59.450;18.124;2023-08-12T10:37:26;20.50;99.90
10722;DHT22;5412;59.450;18.124;2023-08-12T10:39:53;20.60;99.90
10722;DHT22;5412;59.450;18.124;2023-08-12T10:42:42;20.60;99.90
10722;DHT22;5412;59.450;18.124;2023-08-12T10:45:08;20.50;99.90
10722;DHT22;5412;59.450;18.124;2023-08-12T10:47:51;20.50;99.90
10722;DHT22;5412;59.450;18.124;2023-08-12T10:50:21;20.60;99.90
10722;DHT22;5412;59.450;18.124;2023-08-12T10:52:51;20.70;99.90
10722;DHT22;5412;59.450;18.124;2023-08-12T10:55:22;20.80;99.90
10722;DHT22;5412;59.450;18.124;2023-08-12T10:57:53;20.80;99.90
10722;DHT22;5412;59.450;18.124;2023-08-12T11:00:29;20.70;99.90
10722;DHT22;5412;59.450;18.124;2023-08-12T11:02:56;20.70;99.90
10722;DHT22;5412;59.450;18.124;2023-08-12T11:05:24;20.70;99.90
10722;DHT22;5412;59.450;18.124;2023-08-12T11:08:00;20.70;99.90
10722;DHT22;5412;59.450;18.124;2023-08-12T11:10:30;20.60;99.90
10722;DHT22;5412;59.450;18.124;2023-08-12T11:12:57;20.60;99.90
10722;DHT22;5412;59.450;18.124;2023-08-12T11:18:08;20.50;99.90
10722;DHT22;5412;59.450;18.124;2023-08-12T11:20:35;20.50;99.90
10722;DHT22;5412;59.450;18.124;2023-08-12T11:23:02;20.40;99.90
10722;DHT22;5412;59.450;18.124;2023-08-12T11:25:29;20.40;99.90
10722;DHT22;5412;59.450;18.124;2023-08-12T11:27:56;20.50;99.90
10722;DHT22;5412;59.450;18.124;2023-08-12T11:30:22;20.60;99.90
10722;DHT22;5412;59.450;18.124;2023-08-12T11:32:55;20.70;99.90
10722;DHT22;5412;59.450;18.124;2023-08-12T11:35:23;20.90;99.90
10722;DHT22;5412;59.450;18.124;2023-08-12T11:37:51;21.00;99.90
10722;DHT22;5412;59.450;18.124;2023-08-12T11:40:22;20.90;99.90
10722;DHT22;5412;59.450;18.124;2023-08-12T11:42:50;21.20;99.90
10722;DHT22;5412;59.450;18.124;2023-08-12T11:45:19;21.20;99.90
10722;DHT22;5412;59.450;18.124;2023-08-12T11:47:44;21.20;99.90
10722;DHT22;5412;59.450;18.124;2023-08-12T11:50:12;21.20;99.90
10722;DHT22;5412;59.450;18.124;2023-08-12T11:52:39;21.20;99.90
10722;DHT22;5412;59.450;18.124;2023-08-12T11:55:06;21.20;99.90
10722;DHT22;5412;59.450;18.124;2023-08-12T11:57:33;21.10;99.90
10722;DHT22;5412;59.450;18.124;2023-08-12T12:00:10;21.10;99.90
10722;DHT22;5412;59.450;18.124;2023-08-12T12:02:52;21.10;99.90
10722;DHT22;5412;59.450;18.124;2023-08-12T12:05:28;21.10;99.90
10722;DHT22;5412;59.450;18.124;2023-08-12T12:07:55;21.10;99.90
10722;DHT22;5412;59.450;18.124;2023-08-12T12:10:30;21.10;99.90
10722;DHT22;5412;59.450;18.124;2023-08-12T12:12:56;21.00;99.90
10722;DHT22;5412;59.450;18.124;2023-08-12T12:15:23;20.80;99.90
10722;DHT22;5412;59.450;18.124;2023-08-12T12:17:52;20.80;99.90
10722;DHT22;5412;59.450;18.124;2023-08-12T12:20:18;20.70;99.90
10722;DHT22;5412;59.450;18.124;2023-08-12T12:22:44;20.70;99.90
10722;DHT22;5412;59.450;18.124;2023-08-12T12:25:15;20.60;99.90
10722;DHT22;5412;59.450;18.124;2023-08-12T12:27:43;20.60;99.90
10722;DHT22;5412;59.450;18.124;2023-08-12T12:30:12;20.60;99.90
10722;DHT22;5412;59.450;18.124;2023-08-12T12:32:38;20.50;99.90
10722;DHT22;5412;59.450;18.124;2023-08-12T12:35:04;20.50;99.90
10722;DHT22;5412;59.450;18.124;2023-08-12T12:37:32;20.60;99.90
10722;DHT22;5412;59.450;18.124;2023-08-12T12:39:58;20.50;99.90
10722;DHT22;5412;59.450;18.124;2023-08-12T12:42:24;20.60;99.90
10722;DHT22;5412;59.450;18.124;2023-08-12T12:44:50;20.60;99.90
10722;DHT22;5412;59.450;18.124;2023-08-12T12:47:16;20.70;99.90
10722;DHT22;5412;59.450;18.124;2023-08-12T12:49:42;20.70;99.90
10722;DHT22;5412;59.450;18.124;2023-08-12T12:52:08;20.70;99.90
10722;DHT22;5412;59.450;18.124;2023-08-12T12:54:34;20.80;99.90
10722;DHT22;5412;59.450;18.124;2023-08-12T12:57:00;20.70;99.90
10722;DHT22;5412;59.450;18.124;2023-08-12T12:59:26;20.70;99.90
10722;DHT22;5412;59.450;18.124;2023-08-12T13:01:52;20.80;99.90
10722;DHT22;5412;59.450;18.124;2023-08-12T13:04:18;20.80;99.90
10722;DHT22;5412;59.450;18.124;2023-08-12T13:06:44;20.90;99.90
10722;DHT22;5412;59.450;18.124;2023-08-12T13:09:10;21.00;99.90
10722;DHT22;5412;59.450;18.124;2023-08-12T13:11:35;21.00;99.90
10722;DHT22;5412;59.450;18.124;2023-08-12T13:14:02;21.00;99.90
10722;DHT22;5412;59.450;18.124;2023-08-12T13:16:28;20.90;99.90
10722;DHT22;5412;59.450;18.124;2023-08-12T13:18:54;20.80;99.90
10722;DHT22;5412;59.450;18.124;2023-08-12T13:21:19;20.80;99.90
10722;DHT22;5412;59.450;18.124;2023-08-12T13:23:45;20.90;99.90
10722;DHT22;5412;59.450;18.124;2023-08-12T13:26:11;20.90;99.90
10722;DHT22;5412;59.450;18.124;2023-08-12T13:28:37;20.90;99.90
10722;DHT22;5412;59.450;18.124;2023-08-12T13:31:02;21.00;99.90
10722;DHT22;5412;59.450;18.124;2023-08-12T13:33:28;21.00;99.90
10722;DHT22;5412;59.450;18.124;2023-08-12T13:35:54;21.00;99.90
10722;DHT22;5412;59.450;18.124;2023-08-12T13:38:20;21.10;99.90
10722;DHT22;5412;59.450;18.124;2023-08-12T13:40:46;21.10;99.90
10722;DHT22;5412;59.450;18.124;2023-08-12T13:43:11;21.10;99.90
10722;DHT22;5412;59.450;18.124;2023-08-12T13:45:37;21.10;99.90
10722;DHT22;5412;59.450;18.124;2023-08-12T13:48:03;21.10;99.90
10722;DHT22;5412;59.450;18.124;2023-08-12T13:50:29;21.10;99.90
10722;DHT22;5412;59.450;18.124;2023-08-12T13:52:58;21.10;99.90
10722;DHT22;5412;59.450;18.124;2023-08-12T13:55:25;21.10;99.90
10722;DHT22;5412;59.450;18.124;2023-08-12T13:57:51;21.00;99.90
10722;DHT22;5412;59.450;18.124;2023-08-12T14:00:17;21.00;99.90
10722;DHT22;5412;59.450;18.124;2023-08-12T14:02:43;21.00;99.90
10722;DHT22;5412;59.450;18.124;2023-08-12T14:05:10;21.10;99.90
10722;DHT22;5412;59.450;18.124;2023-08-12T14:07:36;21.10;99.90
10722;DHT22;5412;59.450;18.124;2023-08-12T14:10:03;21.10;99.90
10722;DHT22;5412;59.450;18.124;2023-08-12T14:12:29;21.00;99.90
10722;DHT22;5412;59.450;18.124;2023-08-12T14:14:55;21.00;99.90
10722;DHT22;5412;59.450;18.124;2023-08-12T14:17:20;21.10;99.90
10722;DHT22;5412;59.450;18.124;2023-08-12T14:19:49;21.10;99.90
10722;DHT22;5412;59.450;18.124;2023-08-12T14:22:16;21.00;99.90
10722;DHT22;5412;59.450;18.124;2023-08-12T14:24:42;20.90;99.90
10722;DHT22;5412;59.450;18.124;2023-08-12T14:27:09;20.90;99.90
10722;DHT22;5412;59.450;18.124;2023-08-12T14:29:35;20.90;99.90
10722;DHT22;5412;59.450;18.124;2023-08-12T14:32:01;21.10;99.90
10722;DHT22;5412;59.450;18.124;2023-08-12T14:34:26;21.40;99.90
10722;DHT22;5412;59.450;18.124;2023-08-12T14:36:52;21.50;99.90
10722;DHT22;5412;59.450;18.124;2023-08-12T14:39:18;21.70;99.90
10722;DHT22;5412;59.450;18.124;2023-08-12T14:41:43;22.00;99.90
10722;DHT22;5412;59.450;18.124;2023-08-12T14:44:09;22.30;99.90
10722;DHT22;5412;59.450;18.124;2023-08-12T14:46:35;22.20;99.90
10722;DHT22;5412;59.450;18.124;2023-08-12T14:49:01;22.00;99.90
10722;DHT22;5412;59.450;18.124;2023-08-12T14:51:26;21.80;99.90
10722;DHT22;5412;59.450;18.124;2023-08-12T14:53:53;21.60;99.90
10722;DHT22;5412;59.450;18.124;2023-08-12T14:56:18;21.40;99.90
10722;DHT22;5412;59.450;18.124;2023-08-12T14:58:44;21.30;99.90
10722;DHT22;5412;59.450;18.124;2023-08-12T15:01:10;21.20;99.90
10722;DHT22;5412;59.450;18.124;2023-08-12T15:03:36;21.20;99.90
10722;DHT22;5412;59.450;18.124;2023-08-12T15:06:03;21.10;99.90
10722;DHT22;5412;59.450;18.124;2023-08-12T15:08:33;21.10;99.90
10722;DHT22;5412;59.450;18.124;2023-08-12T15:10:58;21.00;99.90
10722;DHT22;5412;59.450;18.124;2023-08-12T15:13:25;21.00;99.90
10722;DHT22;5412;59.450;18.124;2023-08-12T15:15:51;21.00;99.90
10722;DHT22;5412;59.450;18.124;2023-08-12T15:18:17;21.00;99.90
10722;DHT22;5412;59.450;18.124;2023-08-12T15:20:43;21.00;99.90
10722;DHT22;5412;59.450;18.124;2023-08-12T15:23:09;20.90;99.90
10722;DHT22;5412;59.450;18.124;2023-08-12T15:25:35;20.90;99.90
10722;DHT22;5412;59.450;18.124;2023-08-12T15:28:01;20.90;99.90
10722;DHT22;5412;59.450;18.124;2023-08-12T15:30:28;20.90;99.90
10722;DHT22;5412;59.450;18.124;2023-08-12T15:32:55;21.00;99.90
10722;DHT22;5412;59.450;18.124;2023-08-12T15:35:20;21.00;99.90